Time;durP1;ratioP1;P1;durP2;ratioP2;P2;SDS_P1;SDS_P2;PMS_P1;PMS_P2;Temp;Humidity;BMP_temperature;BMP_pressure;BME280_temperature;BME280_humidity;BME280_pressure;Samples;Min_cycle;Max_cycle;Signal;HPM_P1;HPM_P2
2022/03/05 00:02:21;;;;;;;20.17;11.82;;;2.60;99.90;;;;;;5039600;28;20229;-50
2022/03/05 00:04:49;;;;;;;16.10;11.10;;;2.60;99.90;;;;;;5039663;28;20558;-49
2022/03/05 00:07:16;;;;;;;16.73;12.98;;;2.50;99.90;;;;;;5037108;28;20392;-50
2022/03/05 00:09:43;;;;;;;17.17;11.27;;;2.50;99.90;;;;;;5039570;28;20201;-50
2022/03/05 00:12:11;;;;;;;17.23;11.48;;;2.40;99.90;;;;;;5038822;28;20472;-51
2022/03/05 00:14:38;;;;;;;15.95;12.88;;;2.30;99.90;;;;;;5040105;28;20492;-51
2022/03/05 00:17:07;;;;;;;17.58;11.07;;;2.40;99.90;;;;;;5039592;28;20221;-49
2022/03/05 00:19:34;;;;;;;19.92;12.38;;;2.50;99.90;;;;;;5039365;28;20209;-49
2022/03/05 00:22:02;;;;;;;18.83;13.05;;;2.60;99.90;;;;;;5041077;28;20485;-51
2022/03/05 00:24:30;;;;;;;17.58;13.00;;;2.60;99.90;;;;;;5039404;28;20282;-53
2022/03/05 00:26:57;;;;;;;18.35;12.60;;;2.50;99.90;;;;;;5040225;28;20260;-50
2022/03/05 00:29:25;;;;;;;18.67;11.95;;;2.50;99.90;;;;;;5041041;28;20209;-49
2022/03/05 00:31:52;;;;;;;15.02;11.73;;;2.60;99.90;;;;;;5041729;28;20254;-49
2022/03/05 00:34:19;;;;;;;15.82;11.45;;;2.50;99.90;;;;;;5040778;28;20204;-48
2022/03/05 00:36:46;;;;;;;20.38;13.02;;;2.50;99.90;;;;;;5041172;28;20199;-49
2022/03/05 00:39:14;;;;;;;15.63;11.95;;;2.40;99.90;;;;;;5041234;28;20243;-48
2022/03/05 00:41:41;;;;;;;19.15;13.23;;;2.30;99.90;;;;;;5040413;28;20590;-50
2022/03/05 00:44:08;;;;;;;18.15;13.55;;;2.40;99.90;;;;;;5042382;28;20335;-48
2022/03/05 00:46:35;;;;;;;28.20;15.07;;;2.40;99.90;;;;;;5040721;28;20197;-51
2022/03/05 00:49:03;;;;;;;20.35;13.02;;;2.40;99.90;;;;;;5041971;28;20434;-49
2022/03/05 00:51:30;;;;;;;27.70;14.50;;;2.50;99.90;;;;;;5040985;28;20251;-48
2022/03/05 00:53:57;;;;;;;16.15;13.15;;;2.50;99.90;;;;;;5041210;28;20218;-50
2022/03/05 00:56:24;;;;;;;21.45;14.55;;;2.60;99.90;;;;;;5040621;28;20204;-47
2022/03/05 00:58:51;;;;;;;20.30;13.80;;;2.70;99.90;;;;;;5041449;28;20252;-50
2022/03/05 01:01:18;;;;;;;22.15;13.82;;;2.70;99.90;;;;;;5040565;28;20480;-47
2022/03/05 01:03:46;;;;;;;23.10;14.07;;;2.80;99.90;;;;;;5040053;28;20204;-49
2022/03/05 01:06:13;;;;;;;22.75;13.82;;;2.70;99.90;;;;;;5041198;28;20205;-49
2022/03/05 01:08:40;;;;;;;23.17;14.73;;;2.50;99.90;;;;;;5040770;28;20415;-50
2022/03/05 01:11:08;;;;;;;19.52;13.30;;;2.60;99.90;;;;;;5041609;28;20255;-47
2022/03/05 01:13:36;;;;;;;18.80;13.18;;;2.50;99.90;;;;;;5040260;28;20201;-51
2022/03/05 01:16:03;;;;;;;22.48;15.40;;;2.30;99.90;;;;;;5041765;28;20220;-53
2022/03/05 01:18:31;;;;;;;27.48;15.02;;;2.40;99.90;;;;;;5040388;28;20213;-48
2022/03/05 01:20:58;;;;;;;23.05;15.27;;;2.30;99.90;;;;;;5041316;28;20229;-53
2022/03/05 01:23:25;;;;;;;17.52;13.05;;;2.30;99.90;;;;;;5040281;28;20574;-49
2022/03/05 01:25:52;;;;;;;27.10;17.52;;;2.40;99.90;;;;;;5041065;28;20546;-50
2022/03/05 01:28:19;;;;;;;27.38;15.73;;;2.30;99.90;;;;;;5040698;28;20213;-52
2022/03/05 01:30:46;;;;;;;22.05;15.27;;;2.30;99.90;;;;;;5040546;28;20205;-53
2022/03/05 01:33:17;;;;;;;19.63;13.80;;;2.40;99.90;;;;;;5041652;28;20581;-48
2022/03/05 01:35:45;;;;;;;21.67;14.07;;;2.40;99.90;;;;;;5040993;28;20200;-50
2022/03/05 01:38:12;;;;;;;20.80;13.75;;;2.30;99.90;;;;;;5040903;28;20208;-48
2022/03/05 01:40:39;;;;;;;23.08;14.00;;;2.30;99.90;;;;;;5039720;28;20433;-53
2022/03/05 01:43:06;;;;;;;21.40;14.95;;;2.10;99.90;;;;;;5041329;28;20265;-49
2022/03/05 01:45:34;;;;;;;26.95;15.00;;;2.10;99.90;;;;;;5040174;28;20204;-50
2022/03/05 01:48:02;;;;;;;31.88;16.83;;;2.10;99.90;;;;;;5040913;28;20197;-48
2022/03/05 01:50:30;;;;;;;24.40;16.83;;;2.00;99.90;;;;;;5044610;28;20384;-51
2022/03/05 01:52:57;;;;;;;25.42;15.98;;;1.80;99.90;;;;;;5040527;28;20292;-46
2022/03/05 01:55:25;;;;;;;27.17;17.13;;;1.80;99.90;;;;;;5038380;28;20211;-47
2022/03/05 01:57:52;;;;;;;23.77;18.77;;;1.90;99.90;;;;;;5041129;28;20216;-46
2022/03/05 02:00:20;;;;;;;23.35;17.60;;;1.90;99.90;;;;;;5038361;28;20227;-47
2022/03/05 02:02:47;;;;;;;32.85;15.60;;;1.80;99.90;;;;;;5039633;28;20216;-47
2022/03/05 02:05:14;;;;;;;27.08;16.27;;;1.80;99.90;;;;;;5040888;28;20205;-48
2022/03/05 02:07:41;;;;;;;32.03;19.48;;;1.70;99.90;;;;;;5044554;28;20247;-50
2022/03/05 02:10:09;;;;;;;27.95;17.58;;;1.80;99.90;;;;;;5045041;28;20211;-49
2022/03/05 02:12:38;;;;;;;28.90;17.45;;;1.80;99.90;;;;;;5044086;28;20455;-50
2022/03/05 02:15:07;;;;;;;18.63;14.65;;;1.70;99.90;;;;;;5045046;28;20207;-47
2022/03/05 02:17:35;;;;;;;26.95;17.65;;;1.80;99.90;;;;;;5044031;28;20247;-47
2022/03/05 02:20:04;;;;;;;31.00;17.52;;;1.90;99.90;;;;;;5044936;28;20215;-51
2022/03/05 02:22:31;;;;;;;28.23;17.52;;;2.00;99.90;;;;;;5044256;28;20554;-47
2022/03/05 02:24:59;;;;;;;26.45;16.00;;;1.90;99.90;;;;;;5044975;28;20247;-48
2022/03/05 02:27:27;;;;;;;30.38;17.77;;;1.80;99.90;;;;;;5045975;28;20429;-48
2022/03/05 02:29:58;;;;;;;25.63;18.02;;;1.80;99.90;;;;;;5045035;28;20250;-49
2022/03/05 02:32:25;;;;;;;28.30;17.77;;;1.80;99.90;;;;;;5043732;28;20232;-51
2022/03/05 02:34:52;;;;;;;25.65;17.50;;;1.90;99.90;;;;;;5044911;28;20273;-51
2022/03/05 02:37:19;;;;;;;32.35;17.65;;;1.80;99.90;;;;;;5041591;28;20219;-48
2022/03/05 02:39:47;;;;;;;24.95;16.45;;;1.90;99.90;;;;;;5044099;28;20250;-48
2022/03/05 02:42:15;;;;;;;32.45;16.13;;;1.90;99.90;;;;;;5044262;28;20228;-48
2022/03/05 02:44:43;;;;;;;31.80;17.65;;;1.80;99.90;;;;;;5043560;28;20548;-49
2022/03/05 02:47:11;;;;;;;27.17;16.88;;;1.70;99.90;;;;;;5042457;28;20196;-50
2022/03/05 02:49:39;;;;;;;24.27;17.45;;;1.70;99.90;;;;;;5041189;28;20258;-48
2022/03/05 02:52:06;;;;;;;25.63;19.02;;;1.60;99.90;;;;;;5045029;28;20314;-50
2022/03/05 02:54:34;;;;;;;26.17;17.95;;;1.60;99.90;;;;;;5043741;28;20417;-47
2022/03/05 02:57:02;;;;;;;24.90;17.30;;;1.60;99.90;;;;;;5045133;28;20208;-51
2022/03/05 02:59:29;;;;;;;22.75;16.77;;;1.50;99.90;;;;;;5044130;28;20208;-48
2022/03/05 03:01:56;;;;;;;32.05;17.58;;;1.40;99.90;;;;;;5044898;28;20401;-48
2022/03/05 03:04:23;;;;;;;27.70;16.45;;;1.40;99.90;;;;;;5044343;28;20235;-47
2022/03/05 03:06:50;;;;;;;22.92;15.93;;;1.40;99.90;;;;;;5043838;28;20415;-50
2022/03/05 03:09:18;;;;;;;39.05;20.17;;;1.40;99.90;;;;;;5043883;28;20479;-47
2022/03/05 03:11:45;;;;;;;24.58;17.58;;;1.40;99.90;;;;;;5043374;28;20224;-50
2022/03/05 03:14:12;;;;;;;32.05;18.83;;;1.40;99.90;;;;;;5044885;28;20443;-50
2022/03/05 03:16:39;;;;;;;31.73;18.00;;;1.40;99.90;;;;;;5043150;28;20265;-48
2022/03/05 03:19:06;;;;;;;26.80;17.80;;;1.50;99.90;;;;;;5045523;28;20199;-51
2022/03/05 03:21:33;;;;;;;28.15;15.70;;;1.40;99.90;;;;;;5043364;28;20228;-49
2022/03/05 03:24:00;;;;;;;26.38;17.33;;;1.50;99.90;;;;;;5045061;28;20223;-50
2022/03/05 03:26:27;;;;;;;25.52;17.20;;;1.40;99.90;;;;;;5043400;28;20246;-46
2022/03/05 03:28:54;;;;;;;29.38;17.42;;;1.40;99.90;;;;;;5044985;28;20423;-46
2022/03/05 03:31:21;;;;;;;37.10;19.42;;;1.40;99.90;;;;;;5043532;28;20204;-47
2022/03/05 03:33:48;;;;;;;24.08;16.98;;;1.70;99.90;;;;;;5043914;28;20207;-49
2022/03/05 03:36:16;;;;;;;23.35;15.80;;;1.70;99.90;;;;;;5043907;28;20435;-49
2022/03/05 03:38:43;;;;;;;27.85;16.90;;;1.60;99.90;;;;;;5043164;28;20238;-47
2022/03/05 03:41:10;;;;;;;28.05;17.42;;;1.50;99.90;;;;;;5042194;28;20223;-51
2022/03/05 03:43:37;;;;;;;24.92;16.33;;;1.40;99.90;;;;;;5042948;28;20201;-48
2022/03/05 03:46:05;;;;;;;26.98;17.10;;;1.50;99.90;;;;;;5044942;28;20189;-50
2022/03/05 03:48:32;;;;;;;28.13;18.35;;;1.40;99.90;;;;;;5043185;28;20266;-51
2022/03/05 03:50:59;;;;;;;28.38;18.55;;;1.50;99.90;;;;;;5045038;28;20227;-49
2022/03/05 03:53:26;;;;;;;24.08;17.88;;;1.40;99.90;;;;;;5043151;28;20275;-48
2022/03/05 03:55:53;;;;;;;24.85;15.07;;;1.20;99.90;;;;;;5044425;28;20208;-48
2022/03/05 03:58:20;;;;;;;31.77;19.35;;;1.20;99.90;;;;;;5040988;28;20207;-47
2022/03/05 04:00:47;;;;;;;21.52;17.33;;;1.30;99.90;;;;;;5043169;28;20581;-48
2022/03/05 04:03:14;;;;;;;26.73;16.73;;;1.60;99.90;;;;;;5043685;28;20234;-48
2022/03/05 04:05:41;;;;;;;24.40;17.52;;;1.50;99.90;;;;;;5043444;28;20223;-49
2022/03/05 04:10:54;;;;;;;22.35;15.15;;;1.30;99.90;;;;;;5045441;28;20310;-47
2022/03/05 04:13:21;;;;;;;22.73;15.65;;;1.20;99.90;;;;;;5045496;28;20228;-47
2022/03/05 04:15:48;;;;;;;31.98;16.27;;;1.30;99.90;;;;;;5044638;28;20200;-49
2022/03/05 04:18:15;;;;;;;24.13;15.48;;;1.30;99.90;;;;;;5043435;28;20227;-48
2022/03/05 04:20:42;;;;;;;28.55;14.95;;;1.20;99.90;;;;;;5042853;28;20231;-53
2022/03/05 04:23:09;;;;;;;22.40;14.45;;;1.40;99.90;;;;;;5044259;28;20250;-47
2022/03/05 04:25:36;;;;;;;24.02;13.93;;;1.40;99.90;;;;;;5043492;28;20200;-48
2022/03/05 04:28:04;;;;;;;26.90;15.90;;;1.30;99.90;;;;;;5044269;28;20204;-48
2022/03/05 04:30:31;;;;;;;19.88;14.40;;;1.20;99.90;;;;;;5043105;28;20204;-48
2022/03/05 04:32:58;;;;;;;27.65;15.38;;;1.00;99.90;;;;;;5043388;28;20238;-47
2022/03/05 04:35:25;;;;;;;24.05;14.25;;;1.10;99.90;;;;;;5043476;28;20219;-46
2022/03/05 04:37:52;;;;;;;25.23;14.93;;;1.60;99.90;;;;;;5047604;28;20540;-47
2022/03/05 04:40:19;;;;;;;19.92;14.75;;;1.70;99.90;;;;;;5039809;28;20258;-47
2022/03/05 04:42:46;;;;;;;19.42;14.38;;;1.40;99.90;;;;;;5042365;28;20437;-51
2022/03/05 04:45:14;;;;;;;24.65;15.43;;;1.40;99.90;;;;;;5042954;28;20233;-49
2022/03/05 04:47:41;;;;;;;24.58;14.63;;;1.40;99.90;;;;;;5042037;28;20193;-47
2022/03/05 04:50:09;;;;;;;25.63;16.20;;;1.30;99.90;;;;;;5043198;28;20439;-48
2022/03/05 04:52:38;;;;;;;20.60;12.98;;;1.20;99.90;;;;;;5042083;28;20228;-53
2022/03/05 04:55:06;;;;;;;21.95;13.68;;;1.30;99.90;;;;;;5043432;28;20382;-47
2022/03/05 04:57:33;;;;;;;22.45;14.02;;;1.20;99.90;;;;;;5042605;28;20235;-48
2022/03/05 05:00:01;;;;;;;21.33;14.00;;;1.30;99.90;;;;;;5043719;28;20204;-49
2022/03/05 05:02:28;;;;;;;23.05;15.13;;;1.20;99.90;;;;;;5042090;28;20569;-50
2022/03/05 05:04:56;;;;;;;23.00;14.80;;;1.30;99.90;;;;;;5042892;28;20394;-49
2022/03/05 05:07:23;;;;;;;22.48;14.18;;;1.30;99.90;;;;;;5041362;28;20204;-50
2022/03/05 05:09:50;;;;;;;17.48;13.70;;;1.20;99.90;;;;;;5042188;28;20258;-52
2022/03/05 05:12:17;;;;;;;23.40;12.65;;;1.20;99.90;;;;;;5047392;28;20220;-46
2022/03/05 05:14:44;;;;;;;17.40;11.50;;;1.20;99.90;;;;;;5055351;28;20207;-49
2022/03/05 05:17:11;;;;;;;23.00;12.57;;;1.10;99.90;;;;;;5031315;28;20212;-46
2022/03/05 05:19:38;;;;;;;17.85;13.05;;;1.30;99.90;;;;;;5039456;28;20239;-49
2022/03/05 05:22:06;;;;;;;16.58;12.45;;;1.20;99.90;;;;;;5039302;28;20232;-49
2022/03/05 05:24:35;;;;;;;22.17;13.18;;;1.20;99.90;;;;;;5039292;28;20242;-51
2022/03/05 05:27:03;;;;;;;19.92;12.75;;;1.10;99.90;;;;;;5039162;28;20208;-50
2022/03/05 05:29:31;;;;;;;26.13;15.90;;;1.00;99.90;;;;;;5038768;28;20192;-52
2022/03/05 05:32:10;;;;;;;16.02;11.43;;;1.00;99.90;;;;;;5039467;28;20242;-49
2022/03/05 05:34:39;;;;;;;19.80;13.25;;;1.10;99.90;;;;;;5039115;28;20246;-55
2022/03/05 05:37:13;;;;;;;18.48;11.55;;;1.00;99.90;;;;;;5039367;28;20206;-48
2022/03/05 05:39:40;;;;;;;14.38;10.43;;;0.80;99.90;;;;;;5038609;28;20379;-49
2022/03/05 05:42:07;;;;;;;16.08;11.98;;;0.80;99.90;;;;;;5039448;28;20259;-50
2022/03/05 05:44:34;;;;;;;21.38;11.65;;;0.70;99.90;;;;;;5038971;28;20234;-50
2022/03/05 05:47:01;;;;;;;18.92;10.65;;;0.50;99.90;;;;;;5039062;28;20283;-50
2022/03/05 05:49:28;;;;;;;19.25;13.35;;;0.50;99.90;;;;;;5039130;28;20391;-49
2022/03/05 05:51:55;;;;;;;18.20;12.35;;;0.40;99.90;;;;;;5038686;28;20216;-48
2022/03/05 05:54:23;;;;;;;19.27;11.60;;;0.40;99.90;;;;;;5039062;28;20433;-50
2022/03/05 05:56:50;;;;;;;17.27;11.48;;;0.60;99.90;;;;;;5038483;28;20589;-50
2022/03/05 05:59:17;;;;;;;19.30;12.52;;;0.40;99.90;;;;;;5038763;28;20212;-47
2022/03/05 06:01:44;;;;;;;23.27;12.23;;;0.40;99.90;;;;;;5038547;28;20236;-46
2022/03/05 06:04:12;;;;;;;16.77;11.18;;;0.40;99.90;;;;;;5038888;28;20212;-48
2022/03/05 06:06:39;;;;;;;24.88;13.55;;;0.40;99.90;;;;;;5038740;28;20260;-46
2022/03/05 06:09:06;;;;;;;15.98;11.52;;;0.40;99.90;;;;;;5039137;28;20192;-49
2022/03/05 06:11:34;;;;;;;21.85;13.63;;;0.40;99.90;;;;;;5038799;28;20274;-49
2022/03/05 06:14:01;;;;;;;20.50;12.38;;;0.40;99.90;;;;;;5038624;28;20254;-49
2022/03/05 06:16:28;;;;;;;21.90;13.80;;;0.50;99.90;;;;;;5038960;28;20204;-48
2022/03/05 06:18:55;;;;;;;23.67;12.25;;;0.50;99.90;;;;;;5038520;28;20408;-49
2022/03/05 06:21:23;;;;;;;22.27;14.10;;;0.50;99.90;;;;;;5039217;28;20246;-47
2022/03/05 06:23:50;;;;;;;18.38;12.93;;;0.60;99.90;;;;;;5038341;28;20204;-51
2022/03/05 06:26:17;;;;;;;18.40;11.40;;;0.60;99.90;;;;;;5039157;28;20196;-48
2022/03/05 06:28:44;;;;;;;16.58;13.95;;;0.60;99.90;;;;;;5038197;28;20197;-50
2022/03/05 06:31:11;;;;;;;16.15;12.20;;;0.60;99.90;;;;;;5038564;28;20200;-48
2022/03/05 06:33:39;;;;;;;18.42;12.15;;;1.10;99.90;;;;;;5038345;28;20226;-49
2022/03/05 06:36:06;;;;;;;14.90;10.18;;;1.50;99.90;;;;;;5038459;28;20434;-50
2022/03/05 06:38:34;;;;;;;15.48;9.45;;;2.00;99.90;;;;;;5038746;28;20197;-50
2022/03/05 06:41:01;;;;;;;14.45;9.45;;;2.10;99.90;;;;;;5038048;28;20246;-51
2022/03/05 06:43:28;;;;;;;12.15;9.05;;;2.00;99.90;;;;;;5044290;28;20274;-51
2022/03/05 06:45:55;;;;;;;12.35;8.60;;;1.70;99.90;;;;;;5047748;28;20232;-54
2022/03/05 06:48:22;;;;;;;16.20;9.48;;;1.80;99.90;;;;;;5054378;28;20246;-46
2022/03/05 06:50:49;;;;;;;10.93;7.78;;;2.30;99.90;;;;;;5057522;28;20423;-51
2022/03/05 06:53:17;;;;;;;13.38;7.47;;;2.70;99.90;;;;;;5060784;28;20492;-49
2022/03/05 06:55:44;;;;;;;8.10;7.30;;;2.80;99.90;;;;;;5061364;28;20214;-53
2022/03/05 06:58:11;;;;;;;10.75;8.35;;;2.60;99.90;;;;;;5056781;28;20246;-51
2022/03/05 07:00:38;;;;;;;9.45;7.47;;;2.70;99.90;;;;;;5061236;28;20202;-48
2022/03/05 07:03:05;;;;;;;11.50;6.82;;;2.70;99.90;;;;;;5061117;28;20275;-50
2022/03/05 07:05:33;;;;;;;13.43;8.27;;;2.70;99.90;;;;;;5061254;28;20197;-51
2022/03/05 07:08:00;;;;;;;10.85;7.30;;;2.70;99.90;;;;;;5061039;28;20197;-50
2022/03/05 07:10:27;;;;;;;11.02;8.02;;;2.60;99.90;;;;;;5061650;28;20198;-49
2022/03/05 07:12:54;;;;;;;11.45;9.20;;;2.60;99.90;;;;;;5061422;28;20234;-49
2022/03/05 07:15:21;;;;;;;12.70;8.23;;;2.80;99.90;;;;;;5057111;28;20262;-51
2022/03/05 07:17:53;;;;;;;10.75;9.38;;;3.30;99.90;;;;;;5042132;28;20366;-50
2022/03/05 07:20:21;;;;;;;12.80;8.18;;;3.70;99.90;;;;;;5055049;28;20240;-49
2022/03/05 07:22:48;;;;;;;9.50;8.10;;;4.30;99.90;;;;;;5061173;28;20429;-54
2022/03/05 07:25:15;;;;;;;8.32;7.50;;;4.50;99.90;;;;;;5061306;28;20315;-50
2022/03/05 07:27:42;;;;;;;11.35;8.45;;;4.90;99.90;;;;;;5061243;28;20203;-54
2022/03/05 07:30:10;;;;;;;17.55;10.05;;;5.20;99.90;;;;;;5061368;28;20203;-49
2022/03/05 07:32:38;;;;;;;9.60;7.00;;;5.50;99.90;;;;;;5060939;28;20226;-53
2022/03/05 07:35:06;;;;;;;11.10;7.53;;;5.50;99.90;;;;;;5053449;28;20592;-47
2022/03/05 07:37:33;;;;;;;10.25;8.18;;;5.70;99.90;;;;;;5052713;28;20279;-53
2022/03/05 07:40:01;;;;;;;11.80;7.85;;;5.90;99.90;;;;;;5060995;28;20203;-52
2022/03/05 07:42:29;;;;;;;14.73;7.70;;;6.40;99.90;;;;;;5060580;28;20434;-52
2022/03/05 07:44:56;;;;;;;12.13;8.45;;;7.00;99.90;;;;;;5060640;28;20234;-51
2022/03/05 07:47:23;;;;;;;14.38;8.80;;;7.90;99.90;;;;;;5061358;28;20368;-50
2022/03/05 07:49:51;;;;;;;11.18;8.50;;;7.80;99.90;;;;;;5060422;28;20195;-52
2022/03/05 07:52:18;;;;;;;12.32;8.55;;;7.80;99.90;;;;;;5061325;28;20223;-50
2022/03/05 07:54:45;;;;;;;12.68;8.18;;;7.80;99.90;;;;;;5060199;28;20429;-50
2022/03/05 07:57:13;;;;;;;15.85;10.43;;;6.80;99.90;;;;;;5054932;28;20219;-51
2022/03/05 07:59:40;;;;;;;16.10;9.70;;;7.20;99.90;;;;;;5047017;28;20537;-50
2022/03/05 08:02:08;;;;;;;12.40;9.38;;;7.60;99.90;;;;;;5046358;28;20305;-50
2022/03/05 08:04:35;;;;;;;13.13;10.38;;;8.00;99.90;;;;;;5047276;28;20215;-51
2022/03/05 08:07:24;;;;;;;15.55;11.77;;;9.20;99.90;;;;;;5049352;28;20196;-50
2022/03/05 08:09:51;;;;;;;17.10;12.35;;;7.60;99.90;;;;;;5045795;28;20200;-49
2022/03/05 08:12:18;;;;;;;23.95;11.65;;;6.10;99.90;;;;;;5039962;28;20598;-51
2022/03/05 08:14:45;;;;;;;14.95;11.57;;;4.90;99.90;;;;;;5040099;28;20212;-51
2022/03/05 08:17:13;;;;;;;18.67;12.50;;;4.60;99.90;;;;;;5040187;28;20204;-50
2022/03/05 08:19:40;;;;;;;23.77;14.18;;;4.30;99.90;;;;;;5038533;28;20223;-54
2022/03/05 08:22:20;;;;;;;16.45;11.77;;;3.60;99.90;;;;;;5035992;28;20238;-49
2022/03/05 08:24:47;;;;;;;18.73;12.35;;;3.50;99.90;;;;;;5040209;28;20215;-48
2022/03/05 08:27:15;;;;;;;21.75;12.70;;;3.30;99.90;;;;;;5040454;28;20498;-49
2022/03/05 08:29:42;;;;;;;18.13;12.13;;;2.90;99.90;;;;;;5039699;28;20237;-54
2022/03/05 08:32:10;;;;;;;13.45;10.55;;;2.30;99.90;;;;;;5031906;28;20441;-52
2022/03/05 08:34:37;;;;;;;19.27;12.88;;;2.00;99.90;;;;;;5039234;28;20497;-50
2022/03/05 08:37:04;;;;;;;16.55;10.85;;;2.10;99.90;;;;;;5038903;28;20435;-48
2022/03/05 08:39:31;;;;;;;25.75;13.45;;;2.00;99.90;;;;;;5044620;28;20201;-51
2022/03/05 08:41:58;;;;;;;19.30;13.63;;;1.50;99.90;;;;;;5040374;28;20431;-49
2022/03/05 08:44:26;;;;;;;21.58;12.52;;;1.60;99.90;;;;;;5044475;28;20474;-51
2022/03/05 08:46:53;;;;;;;24.38;14.48;;;1.70;99.90;;;;;;5040654;28;20238;-48
2022/03/05 08:49:21;;;;;;;18.52;14.65;;;1.90;99.90;;;;;;5039130;28;20561;-50
2022/03/05 08:51:48;;;;;;;19.88;14.20;;;2.10;99.90;;;;;;5038203;28;20226;-47
2022/03/05 08:54:15;;;;;;;22.42;14.75;;;2.10;99.90;;;;;;5039146;28;20189;-49
2022/03/05 08:56:42;;;;;;;20.92;12.43;;;2.10;99.90;;;;;;5039327;28;20201;-54
2022/03/05 08:59:09;;;;;;;24.80;14.25;;;2.10;99.90;;;;;;5038745;28;20197;-50
2022/03/05 09:01:37;;;;;;;19.40;12.50;;;2.30;99.90;;;;;;5039049;28;20262;-51
2022/03/05 09:04:05;;;;;;;21.30;12.40;;;2.30;99.90;;;;;;5038706;28;20208;-48
2022/03/05 09:06:35;;;;;;;18.67;11.63;;;2.30;99.90;;;;;;5039103;28;20205;-53
2022/03/05 09:09:03;;;;;;;18.88;13.75;;;2.50;99.90;;;;;;5038289;28;20205;-49
2022/03/05 09:11:30;;;;;;;15.93;11.95;;;2.60;99.90;;;;;;5039313;28;20438;-49
2022/03/05 09:13:58;;;;;;;20.73;11.35;;;2.50;99.90;;;;;;5037927;28;20250;-51
2022/03/05 09:16:25;;;;;;;22.77;14.10;;;2.30;99.90;;;;;;5050583;28;20199;-47
2022/03/05 09:18:52;;;;;;;24.38;16.40;;;2.20;99.90;;;;;;5042203;28;20201;-50
2022/03/05 09:21:19;;;;;;;19.35;12.02;;;2.20;99.90;;;;;;5042112;28;20419;-49
2022/03/05 09:23:47;;;;;;;17.33;11.73;;;2.10;99.90;;;;;;5044212;28;20278;-48
2022/03/05 09:26:15;;;;;;;19.33;14.38;;;1.90;99.90;;;;;;5043448;28;20196;-49
2022/03/05 09:28:43;;;;;;;19.83;13.20;;;2.00;99.90;;;;;;5044889;28;20222;-52
2022/03/05 09:31:11;;;;;;;14.20;12.18;;;2.10;99.90;;;;;;5042188;28;20195;-50
2022/03/05 09:33:39;;;;;;;13.68;11.48;;;2.00;99.90;;;;;;5042979;28;20200;-51
2022/03/05 09:36:06;;;;;;;15.35;11.65;;;2.00;99.90;;;;;;5038692;28;20248;-50
2022/03/05 09:38:33;;;;;;;25.42;14.57;;;2.10;99.90;;;;;;5044921;28;20211;-50
2022/03/05 09:41:05;;;;;;;20.80;13.95;;;2.10;99.90;;;;;;5048669;28;20576;-50
2022/03/05 09:43:33;;;;;;;17.85;10.95;;;1.90;99.90;;;;;;5040008;28;20263;-50
2022/03/05 09:46:00;;;;;;;24.15;13.65;;;1.70;99.90;;;;;;5039675;28;20243;-50
2022/03/05 09:48:30;;;;;;;18.25;13.27;;;1.60;99.90;;;;;;5035423;28;20225;-52
2022/03/05 09:50:58;;;;;;;22.90;14.77;;;1.80;99.90;;;;;;5038443;28;20212;-53
2022/03/05 09:53:29;;;;;;;31.48;15.85;;;1.80;99.90;;;;;;5044197;28;20224;-52
2022/03/05 09:55:56;;;;;;;20.75;14.07;;;2.00;99.90;;;;;;5044112;28;20231;-48
2022/03/05 09:58:43;;;;;;;18.60;12.85;;;2.00;99.90;;;;;;5044376;28;20285;-49
2022/03/05 10:01:10;;;;;;;18.42;13.05;;;1.80;99.90;;;;;;5036150;28;20205;-49
2022/03/05 10:03:44;;;;;;;21.77;13.88;;;1.60;99.90;;;;;;5040193;28;20414;-50
2022/03/05 10:06:16;;;;;;;21.70;12.48;;;1.70;99.90;;;;;;5040375;28;20248;-50
2022/03/05 10:08:45;;;;;;;22.17;16.90;;;1.80;99.90;;;;;;5042130;28;20242;-53
2022/03/05 10:11:14;;;;;;;36.53;18.40;;;1.70;99.90;;;;;;5040513;28;20260;-47
2022/03/05 10:13:42;;;;;;;15.52;11.52;;;1.60;99.90;;;;;;5044406;28;20271;-48
2022/03/05 10:16:33;;;;;;;20.55;13.55;;;1.60;99.90;;;;;;5037951;28;20543;-51
2022/03/05 10:19:21;;;;;;;21.90;16.33;;;1.40;99.90;;;;;;5040038;28;20210;-49
2022/03/05 10:22:00;;;;;;;29.05;15.95;;;1.60;99.90;;;;;;5024209;28;20419;-53
2022/03/05 10:24:36;;;;;;;17.08;13.68;;;1.60;99.90;;;;;;5039145;28;20222;-54
2022/03/05 10:27:06;;;;;;;20.85;14.68;;;1.70;99.90;;;;;;5039464;28;20211;-50
2022/03/05 10:29:37;;;;;;;18.98;14.35;;;1.80;99.90;;;;;;5040793;28;20208;-51
2022/03/05 10:32:08;;;;;;;19.25;13.85;;;1.80;99.90;;;;;;5044816;28;20410;-50
2022/03/05 10:34:41;;;;;;;20.95;15.50;;;1.90;99.90;;;;;;5026945;28;20198;-52
2022/03/05 10:37:10;;;;;;;20.63;15.15;;;1.90;99.90;;;;;;5039872;28;20227;-53
2022/03/05 10:39:37;;;;;;;18.90;12.00;;;1.90;99.90;;;;;;5044361;28;20206;-52
2022/03/05 10:42:25;;;;;;;26.10;14.32;;;2.00;99.90;;;;;;5046278;28;20435;-55
2022/03/05 10:45:07;;;;;;;24.65;16.02;;;2.00;99.90;;;;;;5028831;28;20499;-49
2022/03/05 10:47:40;;;;;;;22.45;14.73;;;2.10;99.90;;;;;;5041805;28;20259;-50
2022/03/05 10:50:26;;;;;;;25.30;13.98;;;2.00;99.90;;;;;;5040182;28;20272;-49
2022/03/05 10:53:00;;;;;;;24.10;17.50;;;2.00;99.90;;;;;;5040685;28;20212;-52
2022/03/05 10:55:37;;;;;;;28.50;18.67;;;2.00;99.90;;;;;;5040427;28;20231;-51
2022/03/05 10:58:14;;;;;;;25.25;17.45;;;2.00;99.90;;;;;;5041752;28;20299;-52
2022/03/05 11:00:42;;;;;;;26.85;15.52;;;2.10;99.90;;;;;;5040168;28;20242;-48
2022/03/05 11:03:09;;;;;;;18.65;14.05;;;2.20;99.90;;;;;;5041512;28;20291;-53
2022/03/05 11:05:38;;;;;;;19.65;15.07;;;2.50;99.90;;;;;;5040027;28;20227;-54
2022/03/05 11:08:06;;;;;;;22.65;14.93;;;2.80;99.90;;;;;;5040000;28;20454;-52
2022/03/05 11:10:34;;;;;;;21.75;15.20;;;3.10;99.90;;;;;;5041613;28;20268;-53
2022/03/05 11:13:03;;;;;;;31.35;18.73;;;3.50;99.90;;;;;;5007395;28;20237;-52
2022/03/05 11:15:32;;;;;;;22.52;13.98;;;3.60;99.90;;;;;;5040389;28;20231;-48
2022/03/05 11:18:01;;;;;;;18.45;13.43;;;3.30;99.90;;;;;;5023389;28;20195;-53
2022/03/05 11:20:28;;;;;;;17.10;11.52;;;3.50;99.90;;;;;;5041533;28;20277;-53
2022/03/05 11:22:56;;;;;;;20.90;13.05;;;3.80;99.90;;;;;;5023315;28;20309;-53
2022/03/05 11:25:27;;;;;;;25.08;15.25;;;3.90;99.90;;;;;;5040007;28;20200;-52
2022/03/05 11:28:00;;;;;;;18.58;13.98;;;4.20;99.90;;;;;;5041679;28;20430;-53
2022/03/05 11:30:38;;;;;;;30.80;16.83;;;4.50;99.90;;;;;;5042788;28;20225;-50
2022/03/05 11:33:11;;;;;;;19.25;12.98;;;4.90;99.90;;;;;;5036584;28;20339;-54
2022/03/05 11:35:43;;;;;;;26.17;14.82;;;4.40;99.90;;;;;;5045327;28;20222;-53
2022/03/05 11:38:33;;;;;;;28.83;16.38;;;4.20;99.90;;;;;;5024066;28;20205;-48
2022/03/05 11:41:28;;;;;;;32.65;21.08;;;4.00;99.90;;;;;;5040573;28;20210;-49
2022/03/05 11:44:12;;;;;;;26.23;15.55;;;3.70;99.90;;;;;;5040943;28;20234;-48
2022/03/05 11:46:39;;;;;;;30.38;16.70;;;3.20;99.90;;;;;;5039692;28;20441;-53
2022/03/05 11:49:08;;;;;;;24.95;17.15;;;3.40;99.90;;;;;;5021824;28;20221;-48
2022/03/05 11:51:57;;;;;;;21.58;14.80;;;3.70;99.90;;;;;;5038185;28;20222;-50
2022/03/05 11:54:25;;;;;;;25.20;13.43;;;3.80;99.90;;;;;;5017965;28;20517;-49
2022/03/05 11:57:11;;;;;;;24.55;15.40;;;3.90;99.90;;;;;;5040728;28;20228;-50
2022/03/05 11:59:40;;;;;;;24.45;14.57;;;3.80;99.90;;;;;;5038587;28;20190;-53
2022/03/05 12:02:07;;;;;;;23.83;14.95;;;3.70;99.90;;;;;;5039424;28;20318;-55
2022/03/05 12:04:35;;;;;;;18.40;13.05;;;3.60;99.90;;;;;;5040235;28;20280;-49
2022/03/05 12:07:05;;;;;;;23.00;15.75;;;3.60;99.90;;;;;;5039582;28;20228;-53
2022/03/05 12:09:36;;;;;;;19.25;14.05;;;3.60;99.90;;;;;;5048216;28;20282;-52
2022/03/05 12:12:06;;;;;;;31.08;14.95;;;3.60;99.90;;;;;;5051808;28;20679;-51
2022/03/05 12:15:13;;;;;;;26.60;14.93;;;4.00;99.90;;;;;;5057351;28;20227;-53
2022/03/05 12:17:44;;;;;;;20.17;13.48;;;4.30;99.90;;;;;;5052014;28;20202;-50
2022/03/05 12:20:15;;;;;;;21.00;13.05;;;4.70;99.90;;;;;;5052505;28;20203;-53
2022/03/05 12:22:47;;;;;;;29.90;15.75;;;5.10;99.90;;;;;;5051932;28;20245;-50
2022/03/05 12:25:14;;;;;;;19.83;13.77;;;5.90;99.90;;;;;;5050103;28;20515;-49
2022/03/05 12:27:46;;;;;;;16.83;13.10;;;6.10;99.90;;;;;;5047886;28;20439;-53
2022/03/05 12:30:23;;;;;;;21.75;14.60;;;5.70;99.90;;;;;;5027853;28;20399;-52
2022/03/05 12:32:52;;;;;;;23.77;12.10;;;5.30;99.90;;;;;;5055412;28;20421;-53
2022/03/05 12:35:21;;;;;;;23.00;12.82;;;5.00;99.90;;;;;;5050365;28;20215;-52
2022/03/05 12:37:49;;;;;;;17.80;11.90;;;4.90;99.90;;;;;;5051479;28;20455;-55
2022/03/05 12:40:16;;;;;;;21.40;13.82;;;4.70;99.90;;;;;;5057043;28;20206;-50
2022/03/05 12:42:49;;;;;;;21.13;14.60;;;4.90;99.90;;;;;;5051288;28;20309;-50
2022/03/05 12:45:21;;;;;;;19.80;13.23;;;4.80;99.90;;;;;;5046653;28;20214;-49
2022/03/05 12:47:50;;;;;;;21.20;12.70;;;4.60;99.90;;;;;;5056124;28;20257;-49
2022/03/05 12:50:27;;;;;;;19.05;12.80;;;4.60;99.90;;;;;;5053127;28;20278;-48